createdAt,value
2023-05-19T00:01:37.825Z,101452.74
2023-05-19T00:04:05.186Z,101455.08
2023-05-19T00:06:32.767Z,101455.95
2023-05-19T00:09:09.859Z,101451.78
2023-05-19T00:11:39.121Z,101452.06
2023-05-19T00:14:09.157Z,101452.20
2023-05-19T00:16:37.602Z,101450.59
2023-05-19T00:19:09.796Z,101450.91
2023-05-19T00:21:38.589Z,101450.56
2023-05-19T00:24:06.677Z,101452.79
2023-05-19T00:26:33.884Z,101445.86
2023-05-19T00:29:00.937Z,101446.23
2023-05-19T00:31:28.722Z,101443.63
2023-05-19T00:33:55.829Z,101438.88
2023-05-19T00:36:24.512Z,101438.52
2023-05-19T00:38:51.570Z,101440.43
2023-05-19T00:41:18.626Z,101441.71
2023-05-19T00:43:45.574Z,101444.30
2023-05-19T00:46:12.794Z,101441.15
2023-05-19T00:48:39.932Z,101438.03
2023-05-19T00:51:07.020Z,101438.77
2023-05-19T00:53:35.062Z,101437.38
2023-05-19T00:56:03.408Z,101439.20
2023-05-19T00:58:32.223Z,101437.44
2023-05-19T01:01:04.997Z,101438.30
2023-05-19T01:03:35.826Z,101436.91
2023-05-19T01:06:04.730Z,101434.73
2023-05-19T01:08:36.768Z,101433.03
2023-05-19T01:11:05.079Z,101431.55
2023-05-19T01:13:33.105Z,101427.23
2023-05-19T01:16:23.353Z,101424.57
2023-05-19T01:19:16.678Z,101426.59
2023-05-19T01:22:22.547Z,101429.16
2023-05-19T01:24:54.472Z,101428.05
2023-05-19T01:28:19.929Z,101426.29
2023-05-19T01:30:52.454Z,101424.74
2023-05-19T01:33:22.093Z,101427.24
2023-05-19T01:35:50.683Z,101426.59
2023-05-19T01:38:20.078Z,101424.39
2023-05-19T01:40:49.178Z,101419.55
2023-05-19T01:43:23.699Z,101419.80
2023-05-19T01:45:51.945Z,101416.55
2023-05-19T01:48:19.385Z,101416.39
2023-05-19T01:50:46.724Z,101413.33
2023-05-19T01:53:13.994Z,101414.19
2023-05-19T01:55:49.267Z,101413.13
2023-05-19T01:58:40.072Z,101409.77
2023-05-19T02:01:32.365Z,101412.14
2023-05-19T02:04:31.015Z,101409.36
2023-05-19T02:07:03.319Z,101410.75
2023-05-19T02:10:03.641Z,101408.12
2023-05-19T02:12:40.341Z,101407.86
2023-05-19T02:15:07.692Z,101406.98
2023-05-19T02:17:38.473Z,101403.19
2023-05-19T02:20:06.453Z,101402.80
2023-05-19T02:22:33.573Z,101404.27
2023-05-19T02:25:00.689Z,101400.88
2023-05-19T02:27:27.765Z,101405.16
2023-05-19T02:29:54.976Z,101407.20
2023-05-19T02:32:22.161Z,101405.30
2023-05-19T02:34:49.165Z,101405.76
2023-05-19T02:37:18.010Z,101410.35
2023-05-19T02:39:44.994Z,101416.20
2023-05-19T02:42:14.294Z,101415.19
2023-05-19T02:44:41.286Z,101407.35
2023-05-19T02:47:08.352Z,101407.59
2023-05-19T02:49:35.619Z,101410.08
2023-05-19T02:52:03.773Z,101408.60
2023-05-19T02:54:31.854Z,101409.07
2023-05-19T02:56:59.373Z,101407.42
2023-05-19T02:59:26.550Z,101408.78
2023-05-19T03:02:01.252Z,101409.02
2023-05-19T03:04:29.540Z,101410.03
2023-05-19T03:06:59.806Z,101409.55
2023-05-19T03:09:26.865Z,101410.72
2023-05-19T03:11:53.924Z,101412.70
2023-05-19T03:14:23.425Z,101413.14
2023-05-19T03:16:51.037Z,101416.32
2023-05-19T03:19:18.352Z,101418.41
2023-05-19T03:21:46.023Z,101415.77
2023-05-19T03:24:13.479Z,101415.28
2023-05-19T03:26:41.729Z,101421.73
2023-05-19T03:29:08.685Z,101417.73
2023-05-19T03:31:35.860Z,101416.70
2023-05-19T03:34:03.068Z,101419.90
2023-05-19T03:36:38.980Z,101422.71
2023-05-19T03:39:06.506Z,101422.92
2023-05-19T03:41:33.498Z,101420.81
2023-05-19T03:44:01.029Z,101416.75
2023-05-19T03:46:28.276Z,101416.69
2023-05-19T03:48:55.755Z,101417.50
2023-05-19T03:51:22.916Z,101416.00
2023-05-19T03:53:49.966Z,101417.05
2023-05-19T03:56:17.888Z,101420.48
2023-05-19T03:58:46.607Z,101421.46
2023-05-19T04:01:13.623Z,101423.70
2023-05-19T04:03:41.216Z,101418.38
2023-05-19T04:06:08.538Z,101419.69
2023-05-19T04:08:35.837Z,101417.90
2023-05-19T04:11:02.907Z,101420.70
2023-05-19T04:13:32.312Z,101422.71
2023-05-19T04:15:59.693Z,101422.20
2023-05-19T04:18:28.293Z,101423.04
2023-05-19T04:20:56.244Z,101422.34
2023-05-19T04:23:23.288Z,101422.80
2023-05-19T04:25:50.954Z,101420.33
2023-05-19T04:28:18.022Z,101420.21
2023-05-19T04:30:46.246Z,101423.73
2023-05-19T04:33:13.350Z,101418.44
2023-05-19T04:35:40.657Z,101418.05
2023-05-19T04:38:09.584Z,101419.45
2023-05-19T04:40:36.771Z,101422.98
2023-05-19T04:43:03.873Z,101420.67
2023-05-19T04:45:32.678Z,101423.77
2023-05-19T04:48:00.021Z,101419.21
2023-05-19T04:50:29.101Z,101421.42
2023-05-19T04:52:58.673Z,101419.60
2023-05-19T04:55:25.764Z,101422.84
2023-05-19T04:57:52.878Z,101420.56
2023-05-19T05:00:21.208Z,101414.77
2023-05-19T05:02:49.753Z,101421.48
2023-05-19T05:05:17.593Z,101421.29
2023-05-19T05:07:45.701Z,101421.26
2023-05-19T05:10:13.004Z,101424.00
2023-05-19T05:12:41.138Z,101425.34
2023-05-19T05:19:15.105Z,101419.59
2023-05-19T05:38:04.267Z,101417.13
2023-05-19T05:40:32.006Z,101417.08
2023-05-19T05:42:59.671Z,101418.48
2023-05-19T05:45:26.775Z,101417.55
2023-05-19T06:03:53.705Z,101417.36
2023-05-19T06:14:32.177Z,101417.87
2023-05-19T06:17:50.079Z,101420.53
2023-05-19T06:36:48.468Z,101423.66
2023-05-19T07:29:20.218Z,101413.73
2023-05-19T07:31:47.896Z,101411.92
2023-05-19T07:34:15.170Z,101410.36
2023-05-19T07:36:42.454Z,101414.98
2023-05-19T07:39:10.468Z,101416.95
2023-05-19T07:41:38.141Z,101419.39
2023-05-19T07:44:07.436Z,101416.70
2023-05-19T07:46:35.317Z,101412.35
2023-05-19T07:49:05.544Z,101412.25
2023-05-19T07:51:32.861Z,101412.97
2023-05-19T07:53:59.995Z,101415.66
2023-05-19T07:56:27.344Z,101414.22
2023-05-19T07:58:55.483Z,101417.09
2023-05-19T08:01:22.728Z,101419.92
2023-05-19T08:03:50.310Z,101417.95
2023-05-19T08:06:20.161Z,101413.92
2023-05-19T08:08:48.313Z,101412.31
2023-05-19T08:11:15.581Z,101414.69
2023-05-19T08:13:48.330Z,101414.39
2023-05-19T08:16:18.686Z,101415.38
2023-05-19T08:18:46.047Z,101414.44
2023-05-19T08:21:13.360Z,101414.33
2023-05-19T08:23:40.549Z,101414.05
2023-05-19T08:26:09.128Z,101415.05
2023-05-19T08:28:36.256Z,101412.66
2023-05-19T08:31:03.418Z,101410.85
2023-05-19T08:33:30.651Z,101414.01
2023-05-19T08:35:57.839Z,101416.01
2023-05-19T08:38:26.303Z,101418.23
2023-05-19T08:40:53.686Z,101417.70
2023-05-19T08:43:21.261Z,101419.14
2023-05-19T08:45:48.679Z,101415.16
2023-05-19T08:48:18.936Z,101415.42
2023-05-19T08:50:57.367Z,101413.84
2023-05-19T08:53:34.383Z,101418.30
2023-05-19T08:56:11.169Z,101415.96
2023-05-19T08:58:45.315Z,101416.91
2023-05-19T09:01:16.447Z,101420.27
2023-05-19T09:03:45.786Z,101423.66
2023-05-19T09:06:13.810Z,101424.92
2023-05-19T09:08:42.024Z,101423.16
2023-05-19T09:11:10.395Z,101423.11
2023-05-19T09:13:38.252Z,101422.23
2023-05-19T09:16:06.215Z,101424.03
2023-05-19T09:18:33.817Z,101421.23
2023-05-19T09:21:04.492Z,101418.09
2023-05-19T09:23:36.000Z,101420.23
2023-05-19T09:26:07.078Z,101423.92
2023-05-19T09:28:36.055Z,101418.48
2023-05-19T09:31:08.856Z,101417.01
2023-05-19T09:33:39.380Z,101417.77
2023-05-19T09:36:08.189Z,101418.25
2023-05-19T09:38:36.728Z,101415.53
2023-05-19T09:41:05.914Z,101414.19
2023-05-19T09:43:34.518Z,101414.50
2023-05-19T09:46:06.984Z,101416.52
2023-05-19T09:48:35.899Z,101413.67
2023-05-19T09:51:10.556Z,101413.72
2023-05-19T09:53:38.544Z,101418.20
2023-05-19T09:56:08.260Z,101416.60
2023-05-19T09:58:36.016Z,101414.99
2023-05-19T10:01:04.090Z,101415.42
2023-05-19T10:03:34.516Z,101417.22
2023-05-19T10:06:03.775Z,101413.64
2023-05-19T10:08:31.921Z,101418.11
2023-05-19T10:10:59.882Z,101412.50
2023-05-19T10:13:28.931Z,101411.89
2023-05-19T10:15:59.742Z,101411.48
2023-05-19T10:18:29.043Z,101411.71
2023-05-19T10:20:57.405Z,101414.55
2023-05-19T10:23:25.113Z,101407.95
2023-05-19T10:25:57.485Z,101402.52
2023-05-19T10:28:30.776Z,101400.09
2023-05-19T10:31:01.506Z,101396.88
2023-05-19T10:33:55.081Z,101397.64
2023-05-19T10:36:37.707Z,101395.72
2023-05-19T10:39:12.930Z,101393.19
2023-05-19T10:41:49.331Z,101393.38
2023-05-19T10:44:32.455Z,101397.55
2023-05-19T10:47:00.137Z,101401.32
2023-05-19T10:49:28.054Z,101399.30
2023-05-19T10:51:58.834Z,101396.85
2023-05-19T10:54:48.776Z,101396.07
2023-05-19T10:57:18.210Z,101392.67
2023-05-19T10:59:46.179Z,101389.78
2023-05-19T11:02:44.282Z,101394.17
2023-05-19T11:05:16.491Z,101399.52
2023-05-19T11:08:07.674Z,101398.85
2023-05-19T11:10:46.549Z,101397.58
2023-05-19T11:13:22.747Z,101398.02
2023-05-19T11:15:52.250Z,101393.09
2023-05-19T11:18:23.195Z,101392.84
2023-05-19T11:21:02.792Z,101393.63
2023-05-19T11:23:38.502Z,101395.27
2023-05-19T11:26:10.260Z,101397.34
2023-05-19T11:28:38.775Z,101394.83
2023-05-19T11:31:13.255Z,101396.41
2023-05-19T11:33:42.910Z,101394.69
2023-05-19T11:36:16.333Z,101394.39
2023-05-19T11:38:45.157Z,101395.12
2023-05-19T11:41:16.875Z,101395.27
2023-05-19T11:43:47.504Z,101394.91
2023-05-19T11:46:14.921Z,101394.95
2023-05-19T11:48:42.239Z,101387.88
2023-05-19T11:51:12.120Z,101390.90
2023-05-19T11:53:39.914Z,101392.71
2023-05-19T11:57:17.421Z,101394.97
2023-05-19T11:59:56.832Z,101397.55
2023-05-19T12:02:47.922Z,101396.64
2023-05-19T12:05:35.479Z,101397.52
2023-05-19T12:18:11.842Z,101396.79
2023-05-19T12:22:57.459Z,101396.10
2023-05-19T12:25:29.092Z,101396.92
2023-05-19T12:28:34.417Z,101397.64
2023-05-19T12:31:36.285Z,101395.08
2023-05-19T12:34:42.511Z,101392.97
2023-05-19T12:37:22.467Z,101393.41
2023-05-19T12:45:43.331Z,101392.09
2023-05-19T12:48:59.833Z,101390.56
2023-05-19T12:55:11.925Z,101389.61
2023-05-19T12:58:18.041Z,101387.63
2023-05-19T13:01:24.324Z,101384.86
2023-05-19T13:04:20.864Z,101382.44
2023-05-19T13:06:56.877Z,101384.23
2023-05-19T13:09:23.944Z,101385.72
2023-05-19T13:11:51.856Z,101385.41
2023-05-19T13:14:19.321Z,101382.75
2023-05-19T13:16:47.138Z,101381.36
2023-05-19T13:19:28.207Z,101384.52
2023-05-19T13:22:33.788Z,101382.51
2023-05-19T13:26:36.070Z,101384.30
2023-05-19T13:28:23.866Z,101393.15
2023-05-19T13:30:51.807Z,101394.89
2023-05-19T13:33:18.996Z,101391.84
2023-05-19T13:35:56.268Z,101389.95
2023-05-19T13:38:23.432Z,101389.09
2023-05-19T13:40:50.649Z,101386.98
2023-05-19T13:43:37.892Z,101386.54
2023-05-19T13:46:06.196Z,101384.77
2023-05-19T13:48:40.907Z,101380.56
2023-05-19T13:52:03.171Z,101380.30
2023-05-19T13:58:29.300Z,101375.61
2023-05-19T14:00:02.532Z,101381.64
2023-05-19T14:01:17.058Z,101379.09
2023-05-19T14:04:10.929Z,101375.00
2023-05-19T14:07:02.235Z,101376.08
2023-05-19T14:09:30.012Z,101375.74
2023-05-19T14:11:57.242Z,101376.59
2023-05-19T14:14:24.924Z,101379.51
2023-05-19T14:16:52.287Z,101377.78
2023-05-19T14:19:21.540Z,101381.90
2023-05-19T14:21:50.332Z,101379.80
2023-05-19T14:24:17.479Z,101380.45
2023-05-19T14:26:44.651Z,101384.55
2023-05-19T14:29:12.292Z,101384.85
2023-05-19T14:31:39.593Z,101385.44
2023-05-19T14:34:06.833Z,101386.49
2023-05-19T14:36:34.884Z,101386.27
2023-05-19T14:39:02.538Z,101384.61
2023-05-19T14:41:29.685Z,101383.64
2023-05-19T14:43:56.834Z,101383.67
2023-05-19T14:46:23.922Z,101382.98
2023-05-19T14:48:51.167Z,101380.83
2023-05-19T14:51:18.204Z,101380.84
2023-05-19T14:53:45.358Z,101384.14
2023-05-19T14:56:12.457Z,101382.14
2023-05-19T14:58:40.464Z,101386.80
2023-05-19T15:01:08.233Z,101387.76
2023-05-19T15:03:35.526Z,101389.77
2023-05-19T15:06:03.033Z,101389.09
2023-05-19T15:08:30.495Z,101389.38
2023-05-19T15:10:57.773Z,101391.85
2023-05-19T15:13:26.479Z,101397.16
2023-05-19T15:16:08.456Z,101397.41
2023-05-19T15:18:42.773Z,101396.64
2023-05-19T15:21:10.232Z,101402.80
2023-05-19T15:23:37.490Z,101403.70
2023-05-19T15:26:05.136Z,101400.09
2023-05-19T15:28:33.255Z,101400.91
2023-05-19T15:31:00.681Z,101396.81
2023-05-19T15:33:28.121Z,101392.91
2023-05-19T15:35:56.793Z,101385.00
2023-05-19T15:38:23.952Z,101391.55
2023-05-19T15:40:51.078Z,101390.65
2023-05-19T15:43:19.596Z,101386.48
2023-05-19T15:45:47.658Z,101386.92
2023-05-19T15:48:14.792Z,101386.52
2023-05-19T15:50:42.059Z,101384.52
2023-05-19T15:53:10.251Z,101384.07
2023-05-19T15:55:37.537Z,101379.55
2023-05-19T15:58:04.721Z,101383.60
2023-05-19T16:00:32.625Z,101384.00
2023-05-19T16:03:00.353Z,101380.69
2023-05-19T16:05:27.634Z,101377.41
2023-05-19T16:07:54.981Z,101375.29
2023-05-19T16:10:22.326Z,101375.95
2023-05-19T16:12:49.652Z,101373.14
2023-05-19T16:15:16.990Z,101373.45
2023-05-19T16:17:44.232Z,101372.20
2023-05-19T16:20:11.990Z,101372.50
2023-05-19T16:22:39.318Z,101372.33
2023-05-19T16:25:07.453Z,101375.48
2023-05-19T16:27:34.643Z,101374.21
2023-05-19T16:30:02.808Z,101372.27
2023-05-19T16:32:30.224Z,101374.07
2023-05-19T16:34:57.534Z,101374.20
2023-05-19T16:37:24.623Z,101374.46
2023-05-19T16:39:51.710Z,101376.55
2023-05-19T16:42:18.858Z,101371.80
2023-05-19T16:44:46.356Z,101375.98
2023-05-19T16:47:13.545Z,101376.34
2023-05-19T16:49:40.650Z,101376.29
2023-05-19T16:52:07.877Z,101373.95
2023-05-19T16:54:35.105Z,101373.10
2023-05-19T16:57:02.653Z,101374.04
2023-05-19T16:59:29.722Z,101369.44
2023-05-19T17:01:56.824Z,101366.48
2023-05-19T17:04:24.266Z,101366.55
2023-05-19T17:06:51.379Z,101368.77
2023-05-19T17:09:24.582Z,101369.19
2023-05-19T17:11:55.609Z,101366.09
2023-05-19T17:14:44.265Z,101363.74
2023-05-19T17:20:52.467Z,101365.71
2023-05-19T17:24:35.976Z,101365.42
2023-05-19T17:30:47.211Z,101366.27
2023-05-19T17:33:28.270Z,101366.02
2023-05-19T17:36:08.188Z,101365.20
2023-05-19T17:38:39.927Z,101367.14
2023-05-19T17:41:13.656Z,101369.88
2023-05-19T17:43:41.661Z,101370.20
2023-05-19T17:46:29.727Z,101366.25
2023-05-19T17:48:56.765Z,101364.60
2023-05-19T17:51:23.978Z,101365.27
2023-05-19T17:53:51.252Z,101366.30
2023-05-19T17:56:22.063Z,101370.69
2023-05-19T17:58:49.563Z,101374.91
2023-05-19T18:01:17.630Z,101376.33
2023-05-19T18:03:48.957Z,101374.48
2023-05-19T18:06:17.675Z,101375.95
2023-05-19T18:08:51.021Z,101374.29
2023-05-19T18:11:21.035Z,101374.08
2023-05-19T18:13:48.270Z,101375.71
2023-05-19T18:16:15.454Z,101373.84
2023-05-19T18:18:44.218Z,101371.49
2023-05-19T18:21:13.928Z,101367.59
2023-05-19T18:27:27.559Z,101372.41
2023-05-19T18:30:07.484Z,101375.41
2023-05-19T18:33:31.684Z,101376.84
2023-05-19T18:36:36.848Z,101380.76
2023-05-19T18:39:57.631Z,101383.23
2023-05-19T18:42:41.559Z,101390.61
2023-05-19T18:48:30.034Z,101393.91
2023-05-19T18:55:00.708Z,101397.99
2023-05-19T18:57:27.949Z,101401.28
2023-05-19T19:00:47.663Z,101405.98
2023-05-19T19:04:07.270Z,101400.73
2023-05-19T19:07:16.067Z,101406.44
2023-05-19T19:10:20.437Z,101407.48
2023-05-19T19:13:16.128Z,101411.89
2023-05-19T19:19:30.080Z,101412.53
2023-05-19T19:23:15.493Z,101417.33
2023-05-19T19:28:54.143Z,101419.92
2023-05-19T19:31:56.344Z,101421.13
2023-05-19T19:34:23.744Z,101418.16
2023-05-19T19:37:05.216Z,101418.17
2023-05-19T19:39:32.756Z,101418.73
2023-05-19T19:42:02.583Z,101417.39
2023-05-19T19:44:29.768Z,101422.98
2023-05-19T19:46:56.932Z,101425.98
2023-05-19T19:49:26.950Z,101427.10
2023-05-19T19:51:57.226Z,101430.99
2023-05-19T19:54:24.521Z,101431.70
2023-05-19T19:56:58.118Z,101430.16
2023-05-19T19:59:30.552Z,101427.94
2023-05-19T20:02:32.591Z,101428.63
2023-05-19T20:05:04.061Z,101432.46
2023-05-19T20:07:42.042Z,101431.35
2023-05-19T20:10:50.838Z,101432.30
2023-05-19T20:13:39.918Z,101434.17
2023-05-19T20:16:27.442Z,101435.40
2023-05-19T20:19:09.394Z,101433.86
2023-05-19T20:22:00.224Z,101431.92
2023-05-19T20:24:55.088Z,101433.22
2023-05-19T20:27:49.258Z,101430.98
2023-05-19T20:30:23.094Z,101432.21
2023-05-19T20:33:28.449Z,101430.52
2023-05-19T20:40:09.422Z,101438.70
2023-05-19T20:42:27.449Z,101441.12
2023-05-19T20:45:14.789Z,101437.27
2023-05-19T20:48:06.629Z,101436.80
2023-05-19T20:50:50.047Z,101439.67
2023-05-19T20:54:47.017Z,101442.65
2023-05-19T21:03:26.388Z,101440.81
2023-05-19T21:06:00.478Z,101440.13
2023-05-19T21:09:19.269Z,101440.94
2023-05-19T21:12:15.901Z,101446.44
2023-05-19T21:14:43.069Z,101444.00
2023-05-19T21:17:10.253Z,101446.03
2023-05-19T21:19:39.398Z,101443.90
2023-05-19T21:22:06.748Z,101443.20
2023-05-19T21:24:34.085Z,101440.30
2023-05-19T21:27:01.559Z,101436.09
2023-05-19T21:29:28.613Z,101435.96
2023-05-19T21:31:56.131Z,101433.61
2023-05-19T21:34:23.362Z,101438.14
2023-05-19T21:36:50.347Z,101430.46
2023-05-19T21:39:17.538Z,101436.90
2023-05-19T21:41:44.558Z,101438.72
2023-05-19T21:44:11.533Z,101438.58
2023-05-19T21:46:39.404Z,101437.75
2023-05-19T21:49:08.525Z,101440.55
2023-05-19T21:51:36.367Z,101437.37
2023-05-19T21:55:30.820Z,101434.80
2023-05-19T21:57:23.812Z,101438.80
2023-05-19T21:59:50.800Z,101440.27
2023-05-19T22:02:17.813Z,101438.60
2023-05-19T22:04:45.276Z,101437.81
2023-05-19T22:07:12.368Z,101438.98
2023-05-19T22:09:39.318Z,101438.46
2023-05-19T22:12:06.999Z,101437.36
2023-05-19T22:14:34.149Z,101436.91
2023-05-19T22:17:01.181Z,101435.74
2023-05-19T22:19:28.263Z,101435.13
2023-05-19T22:22:01.849Z,101435.55
2023-05-19T22:24:33.108Z,101436.41
2023-05-19T22:27:00.211Z,101435.59
2023-05-19T22:29:27.219Z,101434.90
2023-05-19T22:31:54.280Z,101436.06
2023-05-19T22:34:21.256Z,101436.20
2023-05-19T22:36:48.363Z,101434.80
2023-05-19T22:39:15.515Z,101430.33
2023-05-19T22:41:42.631Z,101429.55
2023-05-19T22:44:11.059Z,101429.91
2023-05-19T22:46:38.116Z,101433.36
2023-05-19T22:49:05.398Z,101433.37
2023-05-19T22:51:33.234Z,101435.80
2023-05-19T22:54:00.334Z,101434.73
2023-05-19T22:56:27.403Z,101431.92
2023-05-19T22:58:54.425Z,101435.85
2023-05-19T23:01:21.458Z,101436.18
2023-05-19T23:03:48.498Z,101439.30
2023-05-19T23:06:15.802Z,101434.41
2023-05-19T23:08:44.874Z,101430.26
2023-05-19T23:11:12.805Z,101427.10
2023-05-19T23:13:39.860Z,101427.06
2023-05-19T23:16:07.301Z,101428.74
2023-05-19T23:18:34.265Z,101432.16
2023-05-19T23:21:01.294Z,101429.56
2023-05-19T23:23:29.301Z,101430.37
2023-05-19T23:25:56.404Z,101426.30
2023-05-19T23:28:23.448Z,101426.04
2023-05-19T23:30:52.956Z,101424.39
2023-05-19T23:33:20.217Z,101422.56
2023-05-19T23:35:48.244Z,101423.81
2023-05-19T23:38:15.886Z,101423.64
2023-05-19T23:40:43.629Z,101422.25
2023-05-19T23:43:10.755Z,101421.81
2023-05-19T23:45:37.695Z,101422.58
2023-05-19T23:48:05.161Z,101424.95
2023-05-19T23:50:32.215Z,101424.83
2023-05-19T23:53:00.303Z,101423.95
2023-05-19T23:55:27.302Z,101421.43
2023-05-19T23:57:54.346Z,101419.45
